CTQ3 weather

Public forecast

Using degrees Celsius for public forecast. Weather courtesy of forecast.io.

Closest aviation weather report (METAR) to Aguanish Seaplane Base

Closest report is Natashquan Airport, 12.7 nm (23.4 km) E. Retrieved 2020/08/11 18:00 UTC (46 minutes ago):

CYNA 111800Z AUTO 20013G18KT 9SM CLR 25/20 A2980 RMK SLP091 DENSITY ALT 1300FT

Closest aviation forecast (TAF) to Aguanish Seaplane Base

Closest forecast is Natashquan Airport, 12.7 nm (23.4 km) E. Retrieved 2020/08/11 14:00 UTC (5 hours ago):

TAF CYNA 111339Z 1114/1202 15008KT P6SM SCT015 TEMPO 1114/1116 BKN015 FM111600 19010G20KT P6SM FEW050 SCT100 BECMG 1116/1118 20015G25KT BECMG 1122/1124 19012KT RMK FCST BASED ON AUTO OBS NXT FCST BY 112000Z